createdAt,value
2017-09-18T07:19:46.216Z,990.80
2017-09-18T07:20:37.316Z,990.78
2017-09-18T07:21:38.695Z,990.82
2017-09-18T07:22:37.877Z,990.93
2017-09-18T07:23:38.012Z,990.84
2017-09-18T07:24:37.830Z,990.85
2017-09-18T07:25:37.845Z,990.90
2017-09-18T07:26:38.159Z,990.86
2017-09-18T07:27:37.878Z,990.97
2017-09-18T07:28:37.203Z,991.00
2017-09-18T07:29:38.033Z,990.93
2017-09-18T07:30:37.249Z,990.91
2017-09-18T07:31:38.181Z,990.98
2017-09-18T07:32:38.120Z,990.93
2017-09-18T07:33:37.364Z,990.93
2017-09-18T07:34:37.310Z,990.93
2017-09-18T07:35:38.471Z,990.99
2017-09-18T07:36:37.190Z,990.90
2017-09-18T07:37:37.333Z,990.94
2017-09-18T07:38:37.382Z,990.91
2017-09-18T07:39:38.615Z,990.96
2017-09-18T07:40:37.948Z,990.92
2017-09-18T07:41:37.872Z,990.88
2017-09-18T07:42:38.013Z,990.98
2017-09-18T07:43:38.141Z,990.90
2017-09-18T07:44:37.782Z,990.97
2017-09-18T07:45:37.925Z,991.03
2017-09-18T07:46:37.906Z,990.99
2017-09-18T07:47:37.206Z,991.02
2017-09-18T07:48:37.344Z,990.91
2017-09-18T07:49:38.385Z,990.96
2017-09-18T07:50:37.309Z,990.91
2017-09-18T07:51:37.436Z,990.82
2017-09-18T07:52:37.263Z,990.89
2017-09-18T07:53:37.286Z,990.88
2017-09-18T07:54:37.518Z,990.89
2017-09-18T07:55:37.251Z,990.88
2017-09-18T07:56:37.383Z,990.97
2017-09-18T07:57:37.291Z,990.96
2017-09-18T07:58:37.919Z,991.00
2017-09-18T07:59:38.254Z,990.92
2017-09-18T08:00:37.899Z,990.95
2017-09-18T08:01:37.853Z,990.92
2017-09-18T08:02:38.088Z,990.97
2017-09-18T08:03:37.917Z,991.03
2017-09-18T08:04:38.148Z,990.93
2017-09-18T08:05:38.322Z,990.98
2017-09-18T08:06:38.150Z,990.96
2017-09-18T08:07:38.162Z,990.96
2017-09-18T08:08:37.381Z,990.92
2017-09-18T08:09:37.422Z,990.94
2017-09-18T08:10:38.460Z,990.96
2017-09-18T08:11:37.389Z,990.99
2017-09-18T08:12:37.426Z,990.91
2017-09-18T08:13:37.478Z,990.88
2017-09-18T08:14:37.310Z,990.90
2017-09-18T08:15:37.689Z,990.91
2017-09-18T08:16:37.412Z,990.89
2017-09-18T08:17:37.349Z,990.91
2017-09-18T08:18:38.785Z,990.89
2017-09-18T08:19:38.519Z,990.96
2017-09-18T08:20:38.451Z,990.87
2017-09-18T08:21:38.223Z,990.94
2017-09-18T08:22:38.055Z,990.94
2017-09-18T08:23:38.795Z,990.97
2017-09-18T08:24:38.230Z,990.90
2017-09-18T08:25:38.083Z,990.99
2017-09-18T08:26:37.400Z,990.96
2017-09-18T08:27:37.436Z,990.88
2017-09-18T08:28:38.388Z,990.89
2017-09-18T08:29:37.410Z,990.88
2017-09-18T08:30:38.596Z,990.89
2017-09-18T08:31:37.435Z,990.92
2017-09-18T08:32:38.488Z,990.95
2017-09-18T08:33:37.514Z,990.87
2017-09-18T08:34:37.454Z,990.84
2017-09-18T08:35:38.749Z,990.85
2017-09-18T08:36:38.782Z,990.89
2017-09-18T08:37:39.012Z,990.86
2017-09-18T08:38:38.459Z,990.79
2017-09-18T08:39:38.311Z,990.90
2017-09-18T08:40:38.149Z,990.86
2017-09-18T08:41:38.179Z,990.87
2017-09-18T08:42:38.537Z,990.80
2017-09-18T08:43:38.088Z,990.86
2017-09-18T08:44:38.650Z,990.82
2017-09-18T08:45:38.131Z,990.85
2017-09-18T08:46:38.268Z,990.88
2017-09-18T08:47:37.500Z,990.83
2017-09-18T08:48:38.545Z,990.85
2017-09-18T08:49:37.475Z,990.92
2017-09-18T08:50:37.421Z,990.89
2017-09-18T08:51:37.494Z,990.87
2017-09-18T08:52:37.515Z,990.86
2017-09-18T08:53:37.554Z,990.89
2017-09-18T08:54:37.498Z,990.85
2017-09-18T08:55:38.653Z,990.87
2017-09-18T08:56:38.693Z,990.84
2017-09-18T08:57:38.736Z,990.85
2017-09-18T08:58:38.598Z,990.89
2017-09-18T08:59:38.129Z,990.82
2017-09-18T09:00:38.372Z,990.85
2017-09-18T09:01:38.213Z,990.86
2017-09-18T09:02:38.462Z,990.80
2017-09-18T09:03:38.506Z,990.70
2017-09-18T09:04:38.151Z,990.75
2017-09-18T09:05:37.505Z,990.75
2017-09-18T09:06:37.567Z,990.68
2017-09-18T09:07:37.618Z,990.74
2017-09-18T09:08:38.676Z,990.68
2017-09-18T09:09:37.504Z,990.68
2017-09-18T09:10:38.684Z,990.67
2017-09-18T09:11:37.512Z,990.70
2017-09-18T09:12:37.855Z,990.78
2017-09-18T09:13:37.599Z,990.70
2017-09-18T09:14:38.849Z,990.73
2017-09-18T09:15:38.589Z,990.69
2017-09-18T09:16:38.347Z,990.67
2017-09-18T09:17:38.304Z,990.65
2017-09-18T09:18:38.348Z,990.77
